Time;durP1;ratioP1;P1;durP2;ratioP2;P2;SDS_P1;SDS_P2;PMS_P1;PMS_P2;Temp;Humidity;BMP_temperature;BMP_pressure;BME280_temperature;BME280_humidity;BME280_pressure;Samples;Min_cycle;Max_cycle;Signal;HPM_P1;HPM_P2
2023/05/15 00:01:29;;;;;;;20.75;16.52;;;;;;;11.10;92.05;101661.75;5046326;28;20105;-73
2023/05/15 00:03:54;;;;;;;20.02;16.63;;;;;;;11.10;92.06;101661.75;5038617;28;20076;-73
2023/05/15 00:06:20;;;;;;;23.92;18.42;;;;;;;11.09;92.15;101646.91;5031381;28;20067;-73
2023/05/15 00:08:46;;;;;;;23.80;18.58;;;;;;;11.10;92.25;101644.25;5058204;28;20270;-73
2023/05/15 00:11:11;;;;;;;28.63;18.67;;;;;;;11.10;92.11;101648.63;5034356;28;20060;-73
2023/05/15 00:13:37;;;;;;;24.35;19.13;;;;;;;11.09;91.87;101644.28;5056746;28;20029;-73
2023/05/15 00:16:05;;;;;;;26.95;18.40;;;;;;;11.09;92.29;101632.03;5038431;28;20053;-73
2023/05/15 00:18:30;;;;;;;27.23;19.92;;;;;;;10.98;92.12;101626.25;5021141;28;20313;-73
2023/05/15 00:20:56;;;;;;;27.45;19.42;;;;;;;11.00;92.91;101619.19;5043014;28;20037;-73
2023/05/15 00:23:21;;;;;;;25.00;19.10;;;;;;;10.96;92.39;101622.81;5058224;28;20090;-74
2023/05/15 00:25:47;;;;;;;25.63;19.13;;;;;;;10.96;92.35;101620.22;5028725;28;20328;-74
2023/05/15 00:28:12;;;;;;;23.60;17.85;;;;;;;10.96;92.26;101614.97;5053315;28;20037;-74
2023/05/15 00:30:37;;;;;;;24.52;18.85;;;;;;;10.94;92.24;101616.78;5039325;28;20064;-73
2023/05/15 00:33:03;;;;;;;25.48;16.95;;;;;;;10.94;92.13;101620.25;5058404;28;20391;-73
2023/05/15 00:35:28;;;;;;;23.70;18.20;;;;;;;10.92;91.88;101619.44;5045668;28;20049;-73
2023/05/15 00:37:54;;;;;;;24.45;18.50;;;;;;;10.90;92.07;101613.38;5055809;28;20114;-73
2023/05/15 00:40:25;;;;;;;24.10;17.40;;;;;;;10.89;92.06;101613.44;5050536;28;20048;-73
2023/05/15 00:42:51;;;;;;;24.90;17.85;;;;;;;10.88;91.86;101617.81;5055820;28;20067;-73
2023/05/15 00:45:18;;;;;;;21.60;17.42;;;;;;;10.87;91.56;101628.34;5048902;28;20052;-73
2023/05/15 00:47:44;;;;;;;25.25;17.38;;;;;;;10.86;91.71;101622.25;5053829;28;20423;-73
2023/05/15 00:50:10;;;;;;;21.58;17.70;;;;;;;10.83;92.03;101619.72;5048625;28;20029;-73
2023/05/15 00:52:37;;;;;;;18.10;16.20;;;;;;;10.80;92.20;101624.19;5051168;28;20053;-73
2023/05/15 00:55:04;;;;;;;22.67;17.70;;;;;;;10.78;92.38;101612.88;5058183;28;20098;-73
2023/05/15 00:57:30;;;;;;;23.38;18.13;;;;;;;10.71;92.42;101618.31;5048929;28;20063;-73
2023/05/15 00:59:56;;;;;;;20.35;16.02;;;;;;;10.72;92.75;101619.16;5037625;28;20037;-73
2023/05/15 01:02:22;;;;;;;18.67;16.67;;;;;;;10.73;92.75;101620.88;5043405;28;20104;-74
2023/05/15 01:04:48;;;;;;;20.08;15.80;;;;;;;10.72;92.84;101612.16;5037328;28;20100;-73
2023/05/15 01:07:14;;;;;;;23.95;18.15;;;;;;;10.68;92.65;101612.31;5022565;28;20097;-73
2023/05/15 01:09:42;;;;;;;19.63;17.35;;;;;;;10.68;92.78;101607.91;5037959;28;20045;-73
2023/05/15 01:12:09;;;;;;;19.90;16.53;;;;;;;10.68;92.81;101602.69;5053334;28;20033;-73
2023/05/15 01:14:34;;;;;;;18.95;16.27;;;;;;;10.67;92.22;101610.56;5019352;28;20037;-73
2023/05/15 01:17:00;;;;;;;20.98;15.77;;;;;;;10.67;92.06;101615.81;5043532;28;20040;-73
2023/05/15 01:19:25;;;;;;;18.75;16.40;;;;;;;10.65;91.96;101609.78;5057651;28;20490;-73
2023/05/15 01:22:16;;;;;;;19.95;15.45;;;;;;;10.61;91.42;101606.38;5055414;28;20049;-73
2023/05/15 01:25:18;;;;;;;18.23;15.15;;;;;;;10.59;91.45;101608.19;5057148;28;20063;-74
2023/05/15 01:27:49;;;;;;;16.80;15.10;;;;;;;10.57;91.51;101595.13;5017821;28;20259;-74
2023/05/15 01:30:24;;;;;;;19.60;16.05;;;;;;;10.55;91.06;101596.94;5041920;28;20040;-73
2023/05/15 01:33:07;;;;;;;20.42;16.17;;;;;;;10.47;90.80;101598.91;5036788;28;20099;-73
2023/05/15 01:35:38;;;;;;;19.88;16.48;;;;;;;10.46;91.15;101598.94;5036994;28;20045;-73
2023/05/15 01:38:22;;;;;;;22.38;17.13;;;;;;;10.44;91.27;101600.75;5037205;28;20049;-73
2023/05/15 01:40:54;;;;;;;20.38;16.10;;;;;;;10.41;90.89;101596.47;5036896;28;20287;-73
2023/05/15 01:43:23;;;;;;;18.08;15.55;;;;;;;10.40;91.03;101604.34;5037610;28;20041;-73
2023/05/15 01:45:48;;;;;;;29.08;18.27;;;;;;;10.38;91.10;101599.16;5036696;28;20044;-73
2023/05/15 01:48:14;;;;;;;19.55;16.27;;;;;;;10.34;90.65;101603.63;5049312;28;20036;-73
2023/05/15 01:50:41;;;;;;;19.23;16.17;;;;;;;10.29;90.51;101600.22;5049006;28;20037;-73
2023/05/15 01:53:09;;;;;;;20.80;16.10;;;;;;;10.30;90.66;101601.13;5048070;28;20036;-73
2023/05/15 01:55:36;;;;;;;17.75;14.90;;;;;;;10.27;90.86;101599.41;5056614;28;20336;-73
2023/05/15 01:58:03;;;;;;;18.48;14.35;;;;;;;10.26;91.16;101609.94;5028030;28;20079;-73
2023/05/15 02:00:29;;;;;;;18.08;15.10;;;;;;;10.27;91.06;101606.41;5037222;28;20214;-73
2023/05/15 02:03:00;;;;;;;20.90;15.23;;;;;;;10.26;91.32;101607.31;5051678;28;20282;-73
2023/05/15 02:05:26;;;;;;;18.52;15.75;;;;;;;10.23;91.11;101605.66;5057410;28;20037;-73
2023/05/15 02:07:51;;;;;;;21.25;15.85;;;;;;;10.23;91.21;101610.88;5045899;28;20091;-73
2023/05/15 02:10:17;;;;;;;23.52;16.98;;;;;;;10.22;91.31;101606.53;5051113;28;20045;-73
2023/05/15 02:12:43;;;;;;;21.65;16.73;;;;;;;10.21;91.40;101602.22;5042521;28;20044;-74
2023/05/15 02:15:10;;;;;;;22.42;17.08;;;;;;;10.19;91.33;101596.16;5056769;28;20053;-74
2023/05/15 02:17:36;;;;;;;20.50;17.08;;;;;;;10.17;91.39;101595.34;5052828;28;20100;-74
2023/05/15 02:20:04;;;;;;;19.98;16.15;;;;;;;10.15;91.26;101589.28;5019158;28;20127;-74
2023/05/15 02:22:29;;;;;;;20.47;15.90;;;;;;;10.13;91.13;101596.31;5038538;28;20045;-74
2023/05/15 02:24:55;;;;;;;20.10;16.50;;;;;;;10.11;90.94;101592.88;5056366;28;20374;-74
2023/05/15 02:27:27;;;;;;;21.15;16.33;;;;;;;10.09;91.17;101590.28;5056819;28;20040;-74
2023/05/15 02:30:28;;;;;;;22.20;16.05;;;;;;;10.08;91.19;101582.50;5048671;28;20047;-74
2023/05/15 02:33:15;;;;;;;19.38;15.05;;;;;;;10.06;90.92;101582.56;5052905;28;20021;-74
2023/05/15 02:36:02;;;;;;;18.20;15.45;;;;;;;10.03;90.72;101587.84;5027711;28;20029;-74
2023/05/15 02:38:31;;;;;;;22.05;16.45;;;;;;;10.02;90.49;101580.88;5036624;28;20053;-73
2023/05/15 02:40:59;;;;;;;19.73;16.38;;;;;;;10.02;90.46;101585.28;5019848;28;20075;-74
2023/05/15 02:43:25;;;;;;;21.98;16.75;;;;;;;9.98;90.43;101584.50;5042455;28;20056;-74
2023/05/15 02:45:51;;;;;;;23.05;16.60;;;;;;;9.97;90.31;101582.78;5036254;28;20045;-74
2023/05/15 02:48:17;;;;;;;21.02;16.30;;;;;;;9.97;90.64;101582.78;5042885;28;20067;-74
2023/05/15 02:50:43;;;;;;;24.92;18.25;;;;;;;9.93;90.70;101574.16;5036218;28;20366;-74
2023/05/15 02:53:09;;;;;;;24.95;17.63;;;;;;;9.92;90.74;101569.81;5040392;28;20111;-74
2023/05/15 02:55:35;;;;;;;21.92;17.90;;;;;;;9.91;90.99;101578.56;5055602;28;20194;-73
2023/05/15 02:58:01;;;;;;;23.98;17.42;;;;;;;9.92;91.10;101571.59;5054954;28;20040;-74
2023/05/15 03:00:27;;;;;;;19.48;15.90;;;;;;;9.90;90.81;101574.25;5020701;28;20197;-74
2023/05/15 03:02:52;;;;;;;24.98;18.45;;;;;;;9.88;91.49;101573.41;5044562;28;20112;-74
2023/05/15 03:05:18;;;;;;;21.45;17.55;;;;;;;9.87;91.20;101571.69;5043460;28;20065;-74
2023/05/15 03:07:43;;;;;;;21.70;16.85;;;;;;;9.85;91.44;101570.88;5039684;28;20102;-74
2023/05/15 03:10:09;;;;;;;26.98;19.23;;;;;;;9.80;91.63;101573.63;5057517;28;20037;-74
2023/05/15 03:12:34;;;;;;;24.15;18.48;;;;;;;9.80;92.43;101573.63;5043487;28;20056;-74
2023/05/15 03:15:00;;;;;;;29.15;22.08;;;;;;;9.79;92.73;101576.28;5044001;28;20118;-74
2023/05/15 03:17:26;;;;;;;29.75;22.02;;;;;;;9.79;92.86;101576.28;5042891;28;20040;-74
2023/05/15 03:19:52;;;;;;;33.75;23.08;;;;;;;9.73;93.24;101574.69;5058087;28;20244;-74
2023/05/15 03:22:17;;;;;;;26.88;21.95;;;;;;;9.76;93.47;101571.13;5058324;28;20276;-74
2023/05/15 03:24:43;;;;;;;29.98;22.10;;;;;;;9.78;93.31;101570.16;5026590;28;20292;-74
2023/05/15 03:27:08;;;;;;;33.42;23.52;;;;;;;9.73;93.43;101577.28;5039793;28;20040;-74
2023/05/15 03:29:33;;;;;;;31.30;23.20;;;;;;;9.73;93.68;101579.03;5039199;28;20047;-74
2023/05/15 03:31:59;;;;;;;31.95;22.98;;;;;;;9.70;94.08;101582.59;5039645;28;20036;-74
2023/05/15 03:34:24;;;;;;;33.58;23.45;;;;;;;9.69;94.19;101586.09;5039633;28;20033;-74
2023/05/15 03:36:50;;;;;;;29.20;21.40;;;;;;;9.71;94.68;101591.28;5039208;28;20037;-74
2023/05/15 03:39:15;;;;;;;33.55;22.67;;;;;;;9.71;94.99;101588.69;5021647;28;20046;-74
2023/05/15 03:41:41;;;;;;;33.67;23.60;;;;;;;9.68;95.26;101597.47;5039228;28;20265;-74
2023/05/15 03:44:06;;;;;;;29.88;21.75;;;;;;;9.70;95.56;101589.59;5039688;28;20037;-74
2023/05/15 03:46:31;;;;;;;30.13;22.15;;;;;;;9.68;96.09;101593.97;5039239;28;20064;-74
2023/05/15 03:48:57;;;;;;;33.67;21.85;;;;;;;9.68;96.44;101600.09;5044186;28;20078;-74
2023/05/15 03:51:23;;;;;;;30.02;21.52;;;;;;;9.72;96.96;101606.94;5021724;28;20043;-74
2023/05/15 03:53:48;;;;;;;28.70;20.90;;;;;;;9.74;97.20;101601.69;5038781;28;20044;-74
2023/05/15 03:56:14;;;;;;;34.22;23.92;;;;;;;9.75;97.75;101603.38;5059421;28;20036;-74
2023/05/15 03:58:39;;;;;;;32.17;23.33;;;;;;;9.76;98.04;101597.28;5049512;28;20049;-74
2023/05/15 04:01:05;;;;;;;31.40;22.52;;;;;;;9.80;98.84;101604.13;5057083;28;20045;-74
2023/05/15 04:03:30;;;;;;;32.60;24.63;;;;;;;9.80;98.89;101591.06;5052487;28;20024;-74
2023/05/15 04:05:56;;;;;;;35.17;23.88;;;;;;;9.85;98.95;101591.81;5045996;28;20032;-74
2023/05/15 04:08:21;;;;;;;33.25;25.80;;;;;;;9.83;99.38;101595.38;5040798;28;20351;-74
2023/05/15 04:10:46;;;;;;;32.35;25.55;;;;;;;9.86;99.79;101579.56;5025830;28;20044;-74
2023/05/15 04:13:12;;;;;;;38.95;24.98;;;;;;;9.89;99.96;101579.50;5053571;28;20044;-74
2023/05/15 04:15:37;;;;;;;38.88;28.92;;;;;;;9.88;99.99;101578.66;5051322;28;20344;-74
2023/05/15 04:18:03;;;;;;;38.70;27.02;;;;;;;9.92;99.66;101587.28;5051304;28;20037;-74
2023/05/15 04:20:28;;;;;;;39.72;25.92;;;;;;;9.95;99.99;101587.19;5048819;28;20052;-74
2023/05/15 04:22:54;;;;;;;33.78;25.13;;;;;;;9.98;100.00;101580.13;5039931;28;20374;-74
2023/05/15 04:25:19;;;;;;;37.95;25.75;;;;;;;10.01;100.00;101588.81;5050006;28;20037;-74
2023/05/15 04:27:45;;;;;;;31.95;24.33;;;;;;;10.04;99.99;101581.75;5037962;28;20041;-73
2023/05/15 04:30:11;;;;;;;36.25;26.02;;;;;;;10.07;100.00;101581.63;5044971;28;20032;-73
2023/05/15 04:32:38;;;;;;;31.20;23.83;;;;;;;10.12;99.89;101584.13;5057482;28;20033;-73
2023/05/15 04:35:08;;;;;;;31.95;24.77;;;;;;;10.12;99.38;101585.00;5048044;28;20028;-73
2023/05/15 04:37:35;;;;;;;38.75;26.58;;;;;;;10.14;99.58;101583.19;5048031;28;20075;-74
2023/05/15 04:40:00;;;;;;;37.88;25.27;;;;;;;10.13;99.96;101581.50;5054789;28;20101;-74
2023/05/15 04:42:25;;;;;;;28.75;21.13;;;;;;;10.15;100.00;101584.03;5021664;28;20248;-74
2023/05/15 04:44:52;;;;;;;33.63;22.42;;;;;;;10.19;99.65;101583.06;5056124;28;20051;-74
2023/05/15 04:47:17;;;;;;;28.80;21.30;;;;;;;10.17;100.00;101575.25;5038293;28;20286;-74
2023/05/15 04:49:43;;;;;;;25.15;18.25;;;;;;;10.19;99.77;101577.84;5041308;28;20047;-74
2023/05/15 04:52:08;;;;;;;26.20;20.38;;;;;;;10.19;99.70;101575.22;5038383;28;20037;-74
2023/05/15 04:54:33;;;;;;;25.77;18.10;;;;;;;10.25;99.92;101577.66;5037613;28;20041;-74
2023/05/15 04:56:59;;;;;;;27.35;20.02;;;;;;;10.24;99.88;101585.56;5055279;28;20047;-74
2023/05/15 04:59:26;;;;;;;25.30;19.10;;;;;;;10.27;99.90;101581.09;5057494;28;20221;-74
2023/05/15 05:01:52;;;;;;;25.95;19.95;;;;;;;10.27;99.48;101572.38;5041093;28;20044;-74
2023/05/15 05:04:20;;;;;;;24.17;19.23;;;;;;;10.31;99.57;101580.13;5047273;28;20041;-74
2023/05/15 05:06:46;;;;;;;23.27;19.23;;;;;;;10.32;100.00;101578.41;5042907;28;20037;-74
2023/05/15 05:09:11;;;;;;;30.95;19.40;;;;;;;10.32;99.82;101571.38;5041295;28;20045;-74
2023/05/15 05:11:43;;;;;;;24.58;17.13;;;;;;;10.36;99.68;101575.63;5039159;28;20039;-74
2023/05/15 05:14:09;;;;;;;36.30;18.40;;;;;;;10.41;99.56;101570.28;5052334;28;20312;-73
2023/05/15 05:16:35;;;;;;;24.10;18.75;;;;;;;10.43;99.53;101575.47;5045292;28;20045;-74
2023/05/15 05:19:01;;;;;;;27.13;19.73;;;;;;;10.47;99.26;101569.25;5049601;28;20052;-74
2023/05/15 05:21:26;;;;;;;29.60;19.42;;;;;;;10.46;99.20;101568.41;5037561;28;20037;-74
2023/05/15 05:23:51;;;;;;;25.20;19.25;;;;;;;10.50;99.51;101567.41;5023476;28;20099;-74
2023/05/15 05:26:17;;;;;;;27.00;19.70;;;;;;;10.57;99.79;101568.09;5057737;28;20040;-74
2023/05/15 05:28:42;;;;;;;25.77;20.00;;;;;;;10.61;99.47;101563.63;5048281;28;20632;-74
2023/05/15 05:31:08;;;;;;;23.58;19.15;;;;;;;10.67;99.20;101563.44;5018136;28;20399;-74
2023/05/15 05:33:33;;;;;;;27.05;21.45;;;;;;;10.69;99.27;101562.47;5018433;28;20083;-74
2023/05/15 05:35:59;;;;;;;26.25;21.38;;;;;;;10.72;99.07;101564.16;5037198;28;20037;-74
2023/05/15 05:38:26;;;;;;;24.35;19.98;;;;;;;10.72;98.96;101558.91;5028657;28;20142;-74
2023/05/15 05:40:51;;;;;;;25.42;21.25;;;;;;;10.75;98.94;101562.31;5017078;28;20149;-74
2023/05/15 05:43:17;;;;;;;29.77;22.67;;;;;;;10.75;98.76;101551.81;5017857;28;20046;-74
2023/05/15 05:45:42;;;;;;;26.60;21.42;;;;;;;10.78;98.69;101557.88;5049130;28;20487;-74
2023/05/15 05:48:08;;;;;;;25.98;21.33;;;;;;;10.79;98.29;101565.69;5039085;28;20113;-74
2023/05/15 05:50:33;;;;;;;25.45;21.30;;;;;;;10.82;98.07;101562.09;5039117;28;20356;-74
2023/05/15 05:52:59;;;;;;;31.05;23.17;;;;;;;10.83;98.48;101548.97;5044114;28;20034;-73
2023/05/15 05:55:24;;;;;;;29.38;24.17;;;;;;;10.86;98.58;101553.25;5006782;28;20053;-74
2023/05/15 05:57:50;;;;;;;31.52;24.38;;;;;;;10.89;98.34;101550.53;5029917;28;20046;-74
2023/05/15 06:00:15;;;;;;;26.42;22.23;;;;;;;10.90;97.88;101542.63;5012604;28;20037;-74
2023/05/15 06:02:41;;;;;;;26.38;22.23;;;;;;;10.93;98.09;101539.03;5036231;28;20145;-74
2023/05/15 06:05:07;;;;;;;27.60;21.75;;;;;;;10.91;97.74;101546.97;5040628;28;20036;-74
2023/05/15 06:07:34;;;;;;;25.83;20.80;;;;;;;10.95;97.63;101537.22;5049075;28;20045;-74
2023/05/15 06:09:59;;;;;;;27.23;22.13;;;;;;;10.99;97.69;101544.13;5027636;28;20345;-74
2023/05/15 06:12:24;;;;;;;25.63;21.52;;;;;;;11.00;97.58;101544.97;5033421;28;20041;-74
2023/05/15 06:14:50;;;;;;;27.33;21.42;;;;;;;11.02;97.82;101551.00;5019103;28;20045;-74
2023/05/15 06:17:15;;;;;;;28.70;23.52;;;;;;;11.05;97.79;101543.06;5037239;28;20033;-74
2023/05/15 06:19:41;;;;;;;29.73;23.80;;;;;;;11.07;98.12;101546.50;5036653;28;20041;-74
2023/05/15 06:22:06;;;;;;;29.77;21.92;;;;;;;11.09;97.85;101544.66;5019306;28;20029;-74
2023/05/15 06:24:31;;;;;;;27.42;21.40;;;;;;;11.10;97.19;101543.78;5018528;28;20064;-74
2023/05/15 06:26:57;;;;;;;30.40;21.23;;;;;;;11.11;97.04;101542.84;5037023;28;20064;-74
2023/05/15 06:29:23;;;;;;;26.02;20.92;;;;;;;11.14;97.19;101540.16;5035492;28;20045;-74
2023/05/15 06:31:48;;;;;;;24.95;18.73;;;;;;;11.16;96.81;101550.59;5034457;28;20037;-73
2023/05/15 06:34:13;;;;;;;24.23;19.45;;;;;;;11.18;96.41;101554.00;5035585;28;20049;-74
2023/05/15 06:36:39;;;;;;;20.50;18.15;;;;;;;11.18;96.17;101548.78;5038198;28;20045;-74
2023/05/15 06:39:05;;;;;;;24.63;20.00;;;;;;;11.21;96.00;101548.69;5037536;28;20037;-74
2023/05/15 06:41:33;;;;;;;26.30;20.35;;;;;;;11.20;96.23;101552.19;5045459;28;20033;-74
2023/05/15 06:43:59;;;;;;;28.38;20.15;;;;;;;11.23;95.98;101554.72;5047323;28;20105;-74
2023/05/15 06:46:24;;;;;;;25.52;20.10;;;;;;;11.26;96.58;101563.38;5040898;28;20048;-74
2023/05/15 06:48:49;;;;;;;30.38;22.15;;;;;;;11.28;97.01;101555.44;5037713;28;20053;-74
2023/05/15 06:51:15;;;;;;;28.88;20.92;;;;;;;11.30;97.14;101554.47;5037642;28;20344;-74
2023/05/15 06:53:41;;;;;;;30.48;21.35;;;;;;;11.32;97.18;101550.03;5036643;28;20268;-74
2023/05/15 06:56:07;;;;;;;35.20;23.50;;;;;;;11.34;97.46;101550.84;5038748;28;20041;-74
2023/05/15 06:58:33;;;;;;;28.25;22.63;;;;;;;11.33;97.79;101559.63;5040283;28;20041;-74
2023/05/15 07:00:59;;;;;;;32.78;23.58;;;;;;;11.35;96.87;101559.59;5041236;28;20036;-74
2023/05/15 07:03:25;;;;;;;31.70;21.48;;;;;;;11.39;97.19;101550.72;5023167;28;20041;-74
2023/05/15 07:05:51;;;;;;;31.92;23.98;;;;;;;11.43;97.33;101556.72;5038984;28;20068;-74
2023/05/15 07:08:16;;;;;;;35.55;23.02;;;;;;;11.46;97.51;101559.22;5039292;28;20036;-74
2023/05/15 07:10:42;;;;;;;29.55;22.08;;;;;;;11.49;97.64;101553.88;5041656;28;20045;-74
2023/05/15 07:13:07;;;;;;;27.63;22.55;;;;;;;11.52;97.64;101556.41;5041793;28;20356;-74
2023/05/15 07:15:32;;;;;;;32.97;22.88;;;;;;;11.53;97.18;101551.13;5039285;28;20088;-74
2023/05/15 07:17:58;;;;;;;32.70;23.90;;;;;;;11.56;97.29;101563.25;5042126;28;20061;-74
2023/05/15 07:20:23;;;;;;;30.05;22.15;;;;;;;11.58;97.24;101565.84;5045593;28;20415;-74
2023/05/15 07:22:48;;;;;;;36.20;23.27;;;;;;;11.59;97.04;101562.28;5041129;28;20045;-74
2023/05/15 07:25:15;;;;;;;30.13;23.08;;;;;;;11.59;96.94;101573.66;5044545;28;20378;-74
2023/05/15 07:27:40;;;;;;;30.98;21.50;;;;;;;11.62;97.34;101575.31;5014882;28;20539;-74
2023/05/15 07:30:06;;;;;;;31.00;22.58;;;;;;;11.62;97.22;101565.66;5037374;28;20045;-74
2023/05/15 07:32:32;;;;;;;27.83;22.17;;;;;;;11.63;96.58;101575.25;5034408;28;20276;-74
2023/05/15 07:34:58;;;;;;;26.40;21.52;;;;;;;11.65;96.72;101580.47;5043604;28;20045;-74
2023/05/15 07:37:24;;;;;;;30.13;21.08;;;;;;;11.68;96.72;101577.75;5043384;28;20383;-74
2023/05/15 07:39:49;;;;;;;28.35;22.35;;;;;;;11.65;96.74;101577.84;5043859;28;20033;-74
2023/05/15 07:42:15;;;;;;;30.15;22.50;;;;;;;11.67;96.67;101578.63;5042503;28;21290;-74
2023/05/15 07:44:40;;;;;;;29.00;20.40;;;;;;;11.67;96.61;101584.75;5047128;28;20504;-74
2023/05/15 07:47:06;;;;;;;34.03;22.27;;;;;;;11.64;96.98;101581.34;5049307;28;20250;-74
2023/05/15 07:49:31;;;;;;;32.22;23.02;;;;;;;11.64;97.25;101586.59;5050160;28;20037;-74
2023/05/15 07:51:57;;;;;;;35.13;24.40;;;;;;;11.62;97.51;101583.19;5049650;28;20071;-74
2023/05/15 07:54:22;;;;;;;33.55;24.10;;;;;;;11.61;97.22;101578.84;5034109;28;20244;-74
2023/05/15 07:56:48;;;;;;;31.15;23.17;;;;;;;11.62;97.22;101580.56;5038469;28;20037;-74
2023/05/15 07:59:13;;;;;;;38.45;24.52;;;;;;;11.61;97.70;101584.09;5037426;28;20041;-74
2023/05/15 08:01:39;;;;;;;36.55;25.38;;;;;;;11.61;97.92;101581.47;5040612;28;20047;-74
2023/05/15 08:04:07;;;;;;;37.92;26.65;;;;;;;11.61;98.07;101579.72;5031723;28;20045;-74
2023/05/15 08:06:32;;;;;;;38.40;27.25;;;;;;;11.63;98.44;101582.28;5038175;28;20021;-74
2023/05/15 08:08:58;;;;;;;34.00;23.80;;;;;;;11.64;98.30;101581.34;5037399;28;20105;-74
2023/05/15 08:11:23;;;;;;;49.33;30.05;;;;;;;11.65;98.54;101580.47;5048286;28;20104;-74
2023/05/15 08:13:48;;;;;;;42.30;28.52;;;;;;;11.68;99.38;101577.75;5031403;28;20336;-74
2023/05/15 08:16:14;;;;;;;44.88;29.55;;;;;;;11.65;100.00;101581.31;5045756;28;20045;-74
2023/05/15 08:18:39;;;;;;;45.95;29.70;;;;;;;11.69;100.00;101584.69;5036153;28;20052;-74
2023/05/15 08:21:05;;;;;;;41.70;28.30;;;;;;;11.67;99.72;101582.13;5030009;28;20112;-74
2023/05/15 08:23:30;;;;;;;42.80;28.25;;;;;;;11.69;99.76;101572.41;5035215;28;20041;-74
2023/05/15 08:25:56;;;;;;;42.55;27.00;;;;;;;11.74;99.75;101577.53;5035507;28;20033;-74
2023/05/15 08:28:21;;;;;;;48.80;30.23;;;;;;;11.74;99.69;101584.56;5043507;28;20033;-74
2023/05/15 08:30:46;;;;;;;43.42;28.70;;;;;;;11.74;99.71;101582.78;5039934;28;20049;-74
2023/05/15 08:33:12;;;;;;;45.15;29.25;;;;;;;11.77;99.89;101585.31;5029090;28;20383;-74
2023/05/15 08:35:37;;;;;;;45.78;28.45;;;;;;;11.79;99.62;101579.97;5044328;28;20418;-74
2023/05/15 08:38:02;;;;;;;49.17;28.77;;;;;;;11.81;99.72;101586.91;5041336;28;20328;-74
2023/05/15 08:40:28;;;;;;;43.33;27.42;;;;;;;11.84;99.35;101580.69;5035820;28;20119;-74
2023/05/15 08:42:58;;;;;;;51.05;31.67;;;;;;;11.78;99.75;101584.38;5038551;28;20049;-74
2023/05/15 08:45:24;;;;;;;57.63;31.38;;;;;;;11.79;99.69;101586.09;5046065;28;20831;-74
2023/05/15 08:47:50;;;;;;;51.22;32.42;;;;;;;11.81;100.00;101586.06;5040644;28;20037;-74
2023/05/15 08:50:16;;;;;;;59.28;34.15;;;;;;;11.78;100.00;101592.25;5038238;28;20036;-74
2023/05/15 08:52:44;;;;;;;64.00;35.47;;;;;;;11.77;100.00;101589.69;5044709;28;20104;-74
2023/05/15 08:55:10;;;;;;;60.17;33.30;;;;;;;11.81;100.00;101588.69;5047623;28;20261;-74
2023/05/15 08:57:37;;;;;;;53.65;30.23;;;;;;;11.83;100.00;101594.75;5039148;28;20318;-74
2023/05/15 09:00:07;;;;;;;62.88;34.17;;;;;;;11.82;100.00;101590.38;5037665;28;20238;-74
2023/05/15 09:02:36;;;;;;;63.42;33.72;;;;;;;11.82;100.00;101593.00;5042041;28;20346;-74
2023/05/15 09:05:03;;;;;;;63.35;33.28;;;;;;;11.85;100.00;101596.38;5040217;28;20363;-74
2023/05/15 09:07:30;;;;;;;63.60;33.75;;;;;;;11.85;100.00;101591.13;5036456;28;20079;-74
2023/05/15 09:09:56;;;;;;;62.38;32.83;;;;;;;11.83;100.00;101600.00;5046269;28;20100;-74
2023/05/15 09:12:23;;;;;;;58.70;31.38;;;;;;;11.85;100.00;101591.13;5039139;28;20045;-74
2023/05/15 09:14:49;;;;;;;61.20;32.20;;;;;;;11.84;100.00;101599.06;5038001;28;20676;-74
2023/05/15 09:17:15;;;;;;;64.82;32.72;;;;;;;11.87;100.00;101591.94;5050522;28;20036;-74
2023/05/15 09:19:41;;;;;;;60.75;32.38;;;;;;;11.92;100.00;101593.59;5047349;28;20033;-74
2023/05/15 09:22:16;;;;;;;57.05;31.92;;;;;;;11.93;100.00;101596.16;5040018;28;20343;-74
2023/05/15 09:24:42;;;;;;;54.95;31.45;;;;;;;11.99;100.00;101589.81;5041614;28;20109;-74
2023/05/15 09:27:08;;;;;;;56.65;30.27;;;;;;;12.04;100.00;101591.41;5053117;28;20376;-74
2023/05/15 09:29:35;;;;;;;53.40;29.15;;;;;;;12.08;100.00;101593.00;5049376;28;20052;-74
2023/05/15 09:32:13;;;;;;;55.55;29.67;;;;;;;12.12;100.00;101593.75;5050542;28;20048;-74
2023/05/15 09:34:40;;;;;;;51.05;28.25;;;;;;;12.18;100.00;101595.31;5033691;28;20048;-74
2023/05/15 09:37:08;;;;;;;46.85;27.08;;;;;;;12.20;100.00;101596.13;5034398;28;20301;-74
2023/05/15 09:39:41;;;;;;;49.15;26.55;;;;;;;12.24;99.82;101597.72;5036841;28;20037;-74
2023/05/15 09:42:08;;;;;;;41.53;24.45;;;;;;;12.29;99.84;101586.13;5036216;28;20356;-74
2023/05/15 09:44:33;;;;;;;46.90;27.40;;;;;;;12.34;99.60;101591.22;5034543;28;20100;-74
2023/05/15 09:46:59;;;;;;;46.53;25.65;;;;;;;12.40;99.29;101593.63;5035704;28;20088;-74
2023/05/15 09:49:27;;;;;;;44.50;27.20;;;;;;;12.41;98.72;101600.59;5036212;28;20033;-75
2023/05/15 09:51:54;;;;;;;41.25;26.05;;;;;;;12.45;98.16;101602.19;5035284;28;20041;-75
2023/05/15 09:54:22;;;;;;;40.28;23.90;;;;;;;12.49;97.66;101603.78;5018602;28;20041;-75
2023/05/15 09:56:47;;;;;;;34.95;23.77;;;;;;;12.56;97.44;101608.84;5035478;28;20057;-74
2023/05/15 09:59:23;;;;;;;33.50;21.65;;;;;;;12.54;95.73;101598.38;5035764;28;20029;-75
2023/05/15 10:01:50;;;;;;;32.10;22.35;;;;;;;12.54;95.42;101605.41;5016645;28;20065;-74
2023/05/15 10:04:16;;;;;;;36.30;22.13;;;;;;;12.55;95.38;101609.75;5043389;28;20097;-74
2023/05/15 10:06:47;;;;;;;36.30;22.33;;;;;;;12.55;96.00;101620.25;5038668;28;20034;-75
2023/05/15 10:09:13;;;;;;;38.60;22.63;;;;;;;12.55;96.19;101613.25;5038631;28;20060;-75
2023/05/15 10:11:44;;;;;;;35.67;22.52;;;;;;;12.55;95.63;101615.00;5036913;28;20045;-75
2023/05/15 10:14:14;;;;;;;30.63;20.90;;;;;;;12.55;94.92;101613.25;5020317;28;20033;-75
2023/05/15 10:16:40;;;;;;;32.45;21.30;;;;;;;12.54;94.46;101621.19;5040445;28;20037;-75
2023/05/15 10:19:10;;;;;;;27.45;20.42;;;;;;;12.51;95.07;101619.50;5041153;28;20108;-75
2023/05/15 10:21:38;;;;;;;33.72;21.67;;;;;;;12.52;94.93;101620.38;5040216;28;20065;-75
2023/05/15 10:24:05;;;;;;;28.63;21.70;;;;;;;12.50;95.85;101620.44;5040650;28;20110;-75
2023/05/15 10:26:38;;;;;;;28.40;20.15;;;;;;;12.49;95.55;101623.97;5040626;28;20053;-75
2023/05/15 10:29:09;;;;;;;29.48;20.13;;;;;;;12.49;95.66;101623.97;5040829;28;20139;-74
2023/05/15 10:31:35;;;;;;;25.83;19.20;;;;;;;12.48;95.25;101625.75;5039809;28;20337;-75
2023/05/15 10:34:02;;;;;;;24.70;18.00;;;;;;;12.46;95.01;101624.06;5041167;28;20316;-75
2023/05/15 10:36:28;;;;;;;24.73;18.60;;;;;;;12.45;94.94;101620.59;5040057;28;20324;-75
2023/05/15 10:38:54;;;;;;;23.85;17.35;;;;;;;12.46;94.65;101624.06;5039929;28;20063;-75
2023/05/15 10:41:21;;;;;;;23.35;15.98;;;;;;;12.50;94.94;101625.69;5022874;28;20127;-75
2023/05/15 10:43:52;;;;;;;22.67;15.57;;;;;;;12.56;95.12;101621.97;5039818;28;20033;-75
2023/05/15 10:46:18;;;;;;;19.40;13.68;;;;;;;12.62;94.78;101614.72;5040638;28;20025;-75
2023/05/15 10:48:44;;;;;;;16.50;11.75;;;;;;;12.68;94.04;101614.50;5039881;28;20047;-75
2023/05/15 10:51:17;;;;;;;14.60;9.90;;;;;;;12.73;93.13;101613.47;5040633;28;20078;-75
2023/05/15 10:53:43;;;;;;;9.90;7.90;;;;;;;12.76;92.99;101618.63;5039875;28;20043;-75
2023/05/15 10:56:15;;;;;;;9.60;7.57;;;;;;;12.77;92.65;101613.31;5022530;28;20083;-75
2023/05/15 10:58:48;;;;;;;8.82;6.85;;;;;;;12.75;92.32;101617.75;5039898;28;20336;-75
2023/05/15 11:01:28;;;;;;;7.80;6.45;;;;;;;12.76;92.24;101622.09;5040349;28;20043;-75
2023/05/15 11:04:09;;;;;;;5.93;5.28;;;;;;;12.77;92.55;101617.69;5039902;28;20068;-75
2023/05/15 11:06:36;;;;;;;7.43;4.75;;;;;;;12.76;91.97;101618.63;5039825;28;20033;-75
2023/05/15 11:09:20;;;;;;;5.35;4.22;;;;;;;12.80;92.29;101623.69;5040033;28;20045;-75